AAL2040 KCLT-KDCA
Flight info
| Callsign | AAL2040 |
|---|---|
| Flight time | 0h 55m |
| Altitude | 37000 |
| Route | KILNS5 AUDII WAVES CAPSS4 |
| Aircraft | A319/M-SDE3FGHIRWY/LB1 |
Departure
| Time | 2026-05-06 01:31 |
|---|---|
| Airport | Charlotte Douglas International Airport (KCLT) |
Arrival
| Time | 2026-05-06 02:26 |
|---|---|
| Airport | Ronald Reagan Washington National Airport (KDCA) |
| Time | Latitude | Longitude | Altitude | Speed | Heading |
|---|---|---|---|---|---|
| 2026-05-06 01:11 | 35.21988 | -80.94451 | 723 ft | 0 kts | 286° |
| 2026-05-06 01:20 | 35.21988 | -80.94450 | 723 ft | 1 kts | 286° |
| 2026-05-06 01:20 | 35.21985 | -80.94437 | 723 ft | 1 kts | 285° |
| 2026-05-06 01:20 | 35.21981 | -80.94420 | 723 ft | 1 kts | 286° |
| 2026-05-06 01:20 | 35.21977 | -80.94402 | 724 ft | 2 kts | 285° |
| 2026-05-06 01:21 | 35.21973 | -80.94385 | 724 ft | 1 kts | 286° |
| 2026-05-06 01:21 | 35.21970 | -80.94373 | 724 ft | 2 kts | 270° |
| 2026-05-06 01:21 | 35.21971 | -80.94363 | 724 ft | 1 kts | 246° |
| 2026-05-06 01:21 | 35.21969 | -80.94370 | 724 ft | 3 kts | 238° |
| 2026-05-06 01:22 | 35.21946 | -80.94389 | 723 ft | 4 kts | 195° |
| 2026-05-06 01:22 | 35.21912 | -80.94387 | 723 ft | 5 kts | 173° |
| 2026-05-06 01:22 | 35.21890 | -80.94383 | 722 ft | 0 kts | 173° |
| 2026-05-06 01:24 | 35.21865 | -80.94376 | 722 ft | 8 kts | 162° |
| 2026-05-06 01:24 | 35.21808 | -80.94355 | 722 ft | 9 kts | 165° |
| 2026-05-06 01:24 | 35.21741 | -80.94344 | 720 ft | 10 kts | 176° |
| 2026-05-06 01:25 | 35.21656 | -80.94324 | 719 ft | 12 kts | 135° |
| 2026-05-06 01:25 | 35.21636 | -80.94225 | 720 ft | 11 kts | 96° |
| 2026-05-06 01:25 | 35.21663 | -80.94138 | 723 ft | 12 kts | 50° |
| 2026-05-06 01:25 | 35.21723 | -80.94055 | 725 ft | 12 kts | 49° |
| 2026-05-06 01:26 | 35.21777 | -80.93982 | 728 ft | 14 kts | 46° |
| 2026-05-06 01:26 | 35.21869 | -80.93860 | 731 ft | 19 kts | 49° |
| 2026-05-06 01:26 | 35.21954 | -80.93742 | 733 ft | 15 kts | 44° |
| 2026-05-06 01:26 | 35.22053 | -80.93714 | 735 ft | 14 kts | 355° |
| 2026-05-06 01:27 | 35.22170 | -80.93724 | 737 ft | 20 kts | 356° |
| 2026-05-06 01:27 | 35.22318 | -80.93738 | 737 ft | 20 kts | 355° |
| 2026-05-06 01:27 | 35.22448 | -80.93748 | 737 ft | 15 kts | 356° |
| 2026-05-06 01:27 | 35.22489 | -80.93743 | 737 ft | 0 kts | 27° |
| 2026-05-06 01:29 | 35.22499 | -80.93731 | 737 ft | 6 kts | 56° |
| 2026-05-06 01:30 | 35.22506 | -80.93649 | 738 ft | 10 kts | 112° |
| 2026-05-06 01:30 | 35.22429 | -80.93614 | 738 ft | 13 kts | 175° |
| 2026-05-06 01:30 | 35.22166 | -80.93593 | 738 ft | 70 kts | 176° |
| 2026-05-06 01:30 | 35.21460 | -80.93531 | 731 ft | 131 kts | 176° |
| 2026-05-06 01:31 | 35.20393 | -80.93430 | 842 ft | 167 kts | 177° |
| 2026-05-06 01:31 | 35.19221 | -80.93324 | 1435 ft | 169 kts | 178° |
| 2026-05-06 01:31 | 35.18076 | -80.93197 | 2224 ft | 165 kts | 176° |
| 2026-05-06 01:31 | 35.16922 | -80.93031 | 2820 ft | 173 kts | 175° |
| 2026-05-06 01:32 | 35.15683 | -80.92597 | 3371 ft | 188 kts | 158° |
| 2026-05-06 01:32 | 35.14535 | -80.91560 | 3754 ft | 219 kts | 134° |
| 2026-05-06 01:32 | 35.13845 | -80.89765 | 4152 ft | 253 kts | 102° |
| 2026-05-06 01:32 | 35.14111 | -80.87536 | 4638 ft | 283 kts | 66° |
| 2026-05-06 01:33 | 35.15217 | -80.85530 | 5342 ft | 294 kts | 54° |
| 2026-05-06 01:33 | 35.16443 | -80.83476 | 6212 ft | 298 kts | 56° |
| 2026-05-06 01:33 | 35.17577 | -80.81322 | 7064 ft | 302 kts | 59° |
| 2026-05-06 01:33 | 35.18618 | -80.79080 | 7892 ft | 305 kts | 61° |
| 2026-05-06 01:34 | 35.19611 | -80.76752 | 8702 ft | 309 kts | 62° |
| 2026-05-06 01:34 | 35.20586 | -80.74342 | 9510 ft | 313 kts | 62° |
| 2026-05-06 01:34 | 35.21527 | -80.71958 | 10245 ft | 317 kts | 63° |
| 2026-05-06 01:34 | 35.22492 | -80.69490 | 10726 ft | 330 kts | 63° |
| 2026-05-06 01:35 | 35.23508 | -80.66868 | 11062 ft | 348 kts | 63° |
| 2026-05-06 01:35 | 35.24562 | -80.64135 | 11521 ft | 360 kts | 63° |
| 2026-05-06 01:35 | 35.25624 | -80.61370 | 12202 ft | 364 kts | 63° |
| 2026-05-06 01:35 | 35.26701 | -80.58557 | 12899 ft | 367 kts | 63° |
| 2026-05-06 01:36 | 35.27774 | -80.55753 | 13571 ft | 371 kts | 63° |
| 2026-05-06 01:36 | 35.28898 | -80.52813 | 14258 ft | 374 kts | 63° |
| 2026-05-06 01:36 | 35.30005 | -80.49914 | 14934 ft | 377 kts | 62° |
| 2026-05-06 01:36 | 35.31113 | -80.47011 | 15527 ft | 381 kts | 62° |
| 2026-05-06 01:37 | 35.32220 | -80.44112 | 15868 ft | 382 kts | 62° |
| 2026-05-06 01:37 | 35.33355 | -80.41133 | 15998 ft | 383 kts | 62° |
| 2026-05-06 01:37 | 35.34481 | -80.38174 | 15991 ft | 381 kts | 62° |
| 2026-05-06 01:37 | 35.35597 | -80.35244 | 15993 ft | 381 kts | 62° |
| 2026-05-06 01:38 | 35.36758 | -80.32192 | 16004 ft | 382 kts | 63° |
| 2026-05-06 01:38 | 35.37899 | -80.29191 | 15983 ft | 381 kts | 63° |
| 2026-05-06 01:38 | 35.39016 | -80.26247 | 15990 ft | 381 kts | 63° |
| 2026-05-06 01:38 | 35.40137 | -80.23289 | 15995 ft | 381 kts | 63° |
| 2026-05-06 01:39 | 35.41247 | -80.20357 | 15996 ft | 382 kts | 63° |
| 2026-05-06 01:39 | 35.42362 | -80.17409 | 15998 ft | 382 kts | 63° |
| 2026-05-06 01:39 | 35.43401 | -80.14411 | 15999 ft | 382 kts | 67° |
| 2026-05-06 01:39 | 35.44343 | -80.11381 | 16000 ft | 383 kts | 68° |
| 2026-05-06 01:40 | 35.45273 | -80.08321 | 16001 ft | 383 kts | 68° |
| 2026-05-06 01:40 | 35.46207 | -80.05241 | 15999 ft | 383 kts | 68° |
| 2026-05-06 01:40 | 35.47125 | -80.02220 | 16004 ft | 382 kts | 68° |
| 2026-05-06 01:40 | 35.48065 | -79.99126 | 16005 ft | 383 kts | 68° |
| 2026-05-06 01:41 | 35.48988 | -79.96096 | 15994 ft | 383 kts | 68° |
| 2026-05-06 01:41 | 35.50802 | -79.90135 | 16580 ft | 391 kts | 68° |
| 2026-05-06 01:41 | 35.51745 | -79.87019 | 17275 ft | 391 kts | 67° |
| 2026-05-06 01:42 | 35.52690 | -79.83904 | 17869 ft | 393 kts | 67° |
| 2026-05-06 01:42 | 35.53660 | -79.80725 | 18425 ft | 397 kts | 66° |
| 2026-05-06 01:42 | 35.54648 | -79.77558 | 18958 ft | 400 kts | 66° |
| 2026-05-06 01:42 | 35.55651 | -79.74363 | 19442 ft | 404 kts | 66° |
| 2026-05-06 01:43 | 35.56667 | -79.71125 | 19955 ft | 408 kts | 66° |
| 2026-05-06 01:43 | 35.57708 | -79.67796 | 20458 ft | 412 kts | 65° |
| 2026-05-06 01:43 | 35.58759 | -79.64427 | 20956 ft | 416 kts | 65° |
| 2026-05-06 01:43 | 35.59826 | -79.61009 | 21435 ft | 419 kts | 65° |
| 2026-05-06 01:44 | 35.60912 | -79.57523 | 21931 ft | 423 kts | 65° |
| 2026-05-06 01:44 | 35.61973 | -79.54107 | 22406 ft | 425 kts | 65° |
| 2026-05-06 01:44 | 35.63032 | -79.50700 | 22828 ft | 429 kts | 65° |
| 2026-05-06 01:44 | 35.64090 | -79.47287 | 23277 ft | 433 kts | 64° |
| 2026-05-06 01:45 | 35.65176 | -79.43784 | 23714 ft | 436 kts | 65° |
| 2026-05-06 01:45 | 35.66266 | -79.40263 | 24173 ft | 439 kts | 64° |
| 2026-05-06 01:45 | 35.67352 | -79.36746 | 24627 ft | 441 kts | 64° |
| 2026-05-06 01:45 | 35.68452 | -79.33174 | 25040 ft | 444 kts | 65° |
| 2026-05-06 01:46 | 35.69607 | -79.29705 | 25403 ft | 444 kts | 58° |
| 2026-05-06 01:46 | 35.71278 | -79.26522 | 25772 ft | 436 kts | 44° |
| 2026-05-06 01:46 | 35.73390 | -79.23942 | 26146 ft | 428 kts | 32° |
| 2026-05-06 01:46 | 35.75772 | -79.21722 | 26557 ft | 428 kts | 29° |
| 2026-05-06 01:47 | 35.78183 | -79.19569 | 26947 ft | 429 kts | 28° |
| 2026-05-06 01:47 | 35.80596 | -79.17416 | 27343 ft | 431 kts | 28° |
| 2026-05-06 01:47 | 35.83006 | -79.15249 | 27707 ft | 434 kts | 29° |
| 2026-05-06 01:47 | 35.85467 | -79.13016 | 28046 ft | 437 kts | 29° |
| 2026-05-06 01:48 | 35.87912 | -79.10784 | 28432 ft | 438 kts | 29° |
| 2026-05-06 01:48 | 35.90351 | -79.08549 | 28795 ft | 440 kts | 29° |
| 2026-05-06 01:48 | 35.92784 | -79.06317 | 29090 ft | 443 kts | 29° |
| 2026-05-06 01:48 | 35.95297 | -79.04009 | 29430 ft | 445 kts | 29° |
| 2026-05-06 01:49 | 35.97806 | -79.01700 | 29758 ft | 447 kts | 29° |
| 2026-05-06 01:49 | 36.00350 | -78.99358 | 30086 ft | 448 kts | 29° |
| 2026-05-06 01:49 | 36.02862 | -78.97038 | 30418 ft | 449 kts | 28° |
| 2026-05-06 01:49 | 36.05371 | -78.94725 | 30745 ft | 450 kts | 28° |
| 2026-05-06 01:50 | 36.07874 | -78.92410 | 31118 ft | 450 kts | 28° |
| 2026-05-06 01:50 | 36.10395 | -78.90077 | 31562 ft | 447 kts | 28° |
| 2026-05-06 01:50 | 36.12902 | -78.87754 | 32045 ft | 444 kts | 27° |
| 2026-05-06 01:50 | 36.15407 | -78.85435 | 32480 ft | 442 kts | 27° |
| 2026-05-06 01:51 | 36.17828 | -78.83193 | 32875 ft | 440 kts | 27° |
| 2026-05-06 01:51 | 36.20288 | -78.80912 | 33302 ft | 438 kts | 27° |
| 2026-05-06 01:51 | 36.22687 | -78.78634 | 33751 ft | 436 kts | 27° |
| 2026-05-06 01:51 | 36.25069 | -78.76337 | 34229 ft | 433 kts | 27° |
| 2026-05-06 01:52 | 36.27448 | -78.74038 | 34615 ft | 432 kts | 27° |
| 2026-05-06 01:52 | 36.29791 | -78.71775 | 34989 ft | 431 kts | 27° |
| 2026-05-06 01:52 | 36.32170 | -78.69479 | 35288 ft | 432 kts | 27° |
| 2026-05-06 01:52 | 36.34551 | -78.67184 | 35564 ft | 432 kts | 27° |
| 2026-05-06 01:53 | 36.36928 | -78.64889 | 35834 ft | 433 kts | 27° |
| 2026-05-06 01:53 | 36.39297 | -78.62601 | 36074 ft | 434 kts | 27° |
| 2026-05-06 01:53 | 36.41684 | -78.60294 | 36322 ft | 434 kts | 27° |
| 2026-05-06 01:53 | 36.44065 | -78.57989 | 36525 ft | 435 kts | 27° |
| 2026-05-06 01:54 | 36.46463 | -78.55666 | 36701 ft | 437 kts | 27° |
| 2026-05-06 01:54 | 36.48892 | -78.53311 | 36875 ft | 438 kts | 27° |
| 2026-05-06 01:54 | 36.51315 | -78.50960 | 36998 ft | 439 kts | 27° |
| 2026-05-06 01:54 | 36.53760 | -78.48587 | 37001 ft | 439 kts | 27° |
| 2026-05-06 01:55 | 36.58616 | -78.43861 | 37001 ft | 440 kts | 27° |
| 2026-05-06 01:55 | 36.63556 | -78.39051 | 37002 ft | 440 kts | 27° |
| 2026-05-06 01:56 | 36.68449 | -78.34275 | 37001 ft | 440 kts | 27° |
| 2026-05-06 01:56 | 36.73344 | -78.29493 | 37007 ft | 440 kts | 27° |
| 2026-05-06 01:57 | 36.78212 | -78.24728 | 37005 ft | 439 kts | 27° |
| 2026-05-06 01:57 | 36.83156 | -78.19881 | 37011 ft | 440 kts | 27° |
| 2026-05-06 01:58 | 36.88118 | -78.15009 | 37007 ft | 440 kts | 28° |
| 2026-05-06 01:58 | 36.93068 | -78.10136 | 37003 ft | 440 kts | 27° |
| 2026-05-06 01:59 | 36.95517 | -78.07726 | 36588 ft | 443 kts | 28° |
| 2026-05-06 01:59 | 36.97968 | -78.05315 | 35927 ft | 443 kts | 28° |
| 2026-05-06 01:59 | 37.00402 | -78.02913 | 35277 ft | 442 kts | 28° |
| 2026-05-06 01:59 | 37.02821 | -78.00522 | 34600 ft | 441 kts | 28° |
| 2026-05-06 02:00 | 37.06009 | -77.97371 | 33719 ft | 440 kts | 28° |
| 2026-05-06 02:00 | 37.07596 | -77.95801 | 33311 ft | 440 kts | 28° |
| 2026-05-06 02:00 | 37.09993 | -77.93436 | 32666 ft | 441 kts | 29° |
| 2026-05-06 02:00 | 37.12482 | -77.90978 | 31940 ft | 444 kts | 30° |
| 2026-05-06 02:01 | 37.14933 | -77.88554 | 31220 ft | 447 kts | 31° |
| 2026-05-06 02:01 | 37.17363 | -77.86149 | 30497 ft | 451 kts | 32° |
| 2026-05-06 02:01 | 37.19826 | -77.83701 | 29918 ft | 450 kts | 32° |
| 2026-05-06 02:01 | 37.22261 | -77.81275 | 29392 ft | 447 kts | 33° |
| 2026-05-06 02:02 | 37.24713 | -77.78825 | 28872 ft | 444 kts | 33° |
| 2026-05-06 02:02 | 37.27173 | -77.76368 | 28372 ft | 440 kts | 33° |
| 2026-05-06 02:02 | 37.29583 | -77.73958 | 27885 ft | 436 kts | 33° |
| 2026-05-06 02:02 | 37.31974 | -77.71571 | 27401 ft | 433 kts | 33° |
| 2026-05-06 02:03 | 37.34341 | -77.69206 | 26914 ft | 429 kts | 33° |
| 2026-05-06 02:03 | 37.36671 | -77.66878 | 26434 ft | 426 kts | 33° |
| 2026-05-06 02:03 | 37.39005 | -77.64545 | 25951 ft | 423 kts | 33° |
| 2026-05-06 02:03 | 37.41322 | -77.62227 | 25473 ft | 420 kts | 33° |
| 2026-05-06 02:04 | 37.43614 | -77.59931 | 24998 ft | 417 kts | 33° |
| 2026-05-06 02:04 | 37.45915 | -77.57625 | 24513 ft | 415 kts | 33° |
| 2026-05-06 02:04 | 37.48231 | -77.55299 | 24026 ft | 412 kts | 33° |
| 2026-05-06 02:04 | 37.50518 | -77.53003 | 23548 ft | 410 kts | 34° |
| 2026-05-06 02:05 | 37.52790 | -77.50721 | 23076 ft | 408 kts | 33° |
| 2026-05-06 02:05 | 37.55037 | -77.48460 | 22620 ft | 406 kts | 34° |
| 2026-05-06 02:05 | 37.57320 | -77.46280 | 22146 ft | 401 kts | 28° |
| 2026-05-06 02:05 | 37.59796 | -77.44624 | 21821 ft | 393 kts | 17° |
| 2026-05-06 02:06 | 37.62394 | -77.43543 | 21691 ft | 393 kts | 9° |
| 2026-05-06 02:06 | 37.65031 | -77.42720 | 21222 ft | 391 kts | 8° |
| 2026-05-06 02:06 | 37.67672 | -77.41949 | 20758 ft | 389 kts | 8° |
| 2026-05-06 02:06 | 37.70324 | -77.41166 | 20301 ft | 388 kts | 8° |
| 2026-05-06 02:07 | 37.72961 | -77.40369 | 19846 ft | 386 kts | 9° |
| 2026-05-06 02:07 | 37.75549 | -77.39577 | 19409 ft | 385 kts | 9° |
| 2026-05-06 02:07 | 37.78168 | -77.38767 | 18955 ft | 384 kts | 9° |
| 2026-05-06 02:07 | 37.80753 | -77.37968 | 18521 ft | 383 kts | 9° |
| 2026-05-06 02:08 | 37.83357 | -77.37161 | 18096 ft | 382 kts | 9° |
| 2026-05-06 02:08 | 37.85964 | -77.36354 | 17640 ft | 382 kts | 9° |
| 2026-05-06 02:08 | 37.88554 | -77.35551 | 17182 ft | 381 kts | 9° |
| 2026-05-06 02:08 | 37.91173 | -77.34740 | 16914 ft | 375 kts | 10° |
| 2026-05-06 02:09 | 37.93899 | -77.33902 | 16933 ft | 378 kts | 10° |
| 2026-05-06 02:09 | 37.96570 | -77.33082 | 16943 ft | 378 kts | 10° |
| 2026-05-06 02:09 | 37.99215 | -77.32268 | 16668 ft | 380 kts | 10° |
| 2026-05-06 02:09 | 38.01860 | -77.31453 | 16173 ft | 379 kts | 10° |
| 2026-05-06 02:10 | 38.04503 | -77.30640 | 15701 ft | 378 kts | 10° |
| 2026-05-06 02:10 | 38.07103 | -77.29836 | 15243 ft | 377 kts | 10° |
| 2026-05-06 02:10 | 38.09670 | -77.29034 | 14795 ft | 376 kts | 10° |
| 2026-05-06 02:10 | 38.12329 | -77.28199 | 14335 ft | 374 kts | 11° |
| 2026-05-06 02:11 | 38.14958 | -77.27371 | 13884 ft | 372 kts | 10° |
| 2026-05-06 02:11 | 38.17574 | -77.26547 | 13416 ft | 370 kts | 11° |
| 2026-05-06 02:11 | 38.20194 | -77.25709 | 13033 ft | 367 kts | 12° |
| 2026-05-06 02:11 | 38.22739 | -77.24773 | 12967 ft | 358 kts | 13° |
| 2026-05-06 02:12 | 38.25289 | -77.23804 | 12959 ft | 353 kts | 13° |
| 2026-05-06 02:12 | 38.27784 | -77.22853 | 12691 ft | 353 kts | 13° |
| 2026-05-06 02:12 | 38.30339 | -77.21882 | 12205 ft | 354 kts | 13° |
| 2026-05-06 02:12 | 38.32810 | -77.20946 | 11755 ft | 354 kts | 13° |
| 2026-05-06 02:13 | 38.35263 | -77.20016 | 11312 ft | 354 kts | 13° |
| 2026-05-06 02:13 | 38.37677 | -77.19099 | 10897 ft | 351 kts | 13° |
| 2026-05-06 02:13 | 38.40058 | -77.18183 | 10884 ft | 348 kts | 14° |
| 2026-05-06 02:13 | 38.42403 | -77.17278 | 10920 ft | 348 kts | 14° |
| 2026-05-06 02:14 | 38.44761 | -77.16363 | 10924 ft | 348 kts | 14° |
| 2026-05-06 02:14 | 38.47158 | -77.15437 | 10937 ft | 347 kts | 13° |
| 2026-05-06 02:14 | 38.49493 | -77.14536 | 10721 ft | 349 kts | 13° |
| 2026-05-06 02:14 | 38.51837 | -77.13631 | 10335 ft | 346 kts | 13° |
| 2026-05-06 02:15 | 38.54136 | -77.12736 | 10182 ft | 329 kts | 13° |
| 2026-05-06 02:15 | 38.56324 | -77.11884 | 10055 ft | 312 kts | 13° |
| 2026-05-06 02:15 | 38.58404 | -77.11079 | 9967 ft | 302 kts | 13° |
| 2026-05-06 02:15 | 38.60403 | -77.10313 | 9955 ft | 302 kts | 13° |
| 2026-05-06 02:16 | 38.62455 | -77.09526 | 9792 ft | 304 kts | 13° |
| 2026-05-06 02:16 | 38.64498 | -77.08742 | 9404 ft | 306 kts | 13° |
| 2026-05-06 02:16 | 38.66539 | -77.07957 | 9042 ft | 307 kts | 13° |
| 2026-05-06 02:16 | 38.68612 | -77.07256 | 8679 ft | 306 kts | 7° |
| 2026-05-06 02:17 | 38.70727 | -77.06862 | 8320 ft | 304 kts | 1° |
| 2026-05-06 02:17 | 38.72835 | -77.06638 | 7968 ft | 304 kts | 360° |
| 2026-05-06 02:17 | 38.74999 | -77.06445 | 7608 ft | 304 kts | 358° |
| 2026-05-06 02:17 | 38.77083 | -77.06780 | 7231 ft | 293 kts | 334° |
| 2026-05-06 02:18 | 38.78848 | -77.07984 | 6897 ft | 285 kts | 321° |
| 2026-05-06 02:18 | 38.80497 | -77.09387 | 6599 ft | 282 kts | 319° |
| 2026-05-06 02:18 | 38.82119 | -77.10782 | 6279 ft | 276 kts | 318° |
| 2026-05-06 02:18 | 38.83599 | -77.12231 | 6020 ft | 258 kts | 312° |
| 2026-05-06 02:19 | 38.84867 | -77.13722 | 5988 ft | 233 kts | 308° |
| 2026-05-06 02:19 | 38.86029 | -77.15175 | 5975 ft | 225 kts | 307° |
| 2026-05-06 02:19 | 38.87143 | -77.16587 | 5757 ft | 223 kts | 307° |
| 2026-05-06 02:19 | 38.88274 | -77.18019 | 5447 ft | 225 kts | 307° |
| 2026-05-06 02:20 | 38.90616 | -77.20971 | 4526 ft | 243 kts | 308° |
| 2026-05-06 02:20 | 38.91858 | -77.22518 | 4069 ft | 241 kts | 308° |
| 2026-05-06 02:20 | 38.93276 | -77.23780 | 3606 ft | 253 kts | 334° |
| 2026-05-06 02:21 | 38.95094 | -77.24015 | 3167 ft | 264 kts | 7° |
| 2026-05-06 02:21 | 38.96745 | -77.23010 | 2935 ft | 256 kts | 46° |
| 2026-05-06 02:21 | 38.97623 | -77.21094 | 2885 ft | 233 kts | 86° |
| 2026-05-06 02:21 | 38.97567 | -77.19152 | 2931 ft | 202 kts | 115° |
| 2026-05-06 02:22 | 38.97133 | -77.17433 | 2892 ft | 198 kts | 121° |
| 2026-05-06 02:22 | 38.96608 | -77.15744 | 2760 ft | 194 kts | 126° |
| 2026-05-06 02:22 | 38.95845 | -77.14365 | 2477 ft | 180 kts | 148° |
| 2026-05-06 02:22 | 38.94850 | -77.13331 | 2174 ft | 174 kts | 151° |
| 2026-05-06 02:23 | 38.93876 | -77.12402 | 1973 ft | 172 kts | 153° |
| 2026-05-06 02:23 | 38.92855 | -77.11468 | 1691 ft | 170 kts | 153° |
| 2026-05-06 02:23 | 38.91854 | -77.10622 | 1445 ft | 169 kts | 150° |
| 2026-05-06 02:23 | 38.91062 | -77.09525 | 1338 ft | 159 kts | 132° |
| 2026-05-06 02:24 | 38.90589 | -77.08231 | 1096 ft | 158 kts | 116° |
| 2026-05-06 02:24 | 38.90183 | -77.06980 | 850 ft | 143 kts | 132° |
| 2026-05-06 02:24 | 38.89511 | -77.06162 | 640 ft | 128 kts | 155° |
| 2026-05-06 02:24 | 38.88802 | -77.05507 | 519 ft | 128 kts | 145° |
| 2026-05-06 02:25 | 38.88112 | -77.04717 | 414 ft | 128 kts | 147° |
| 2026-05-06 02:25 | 38.87346 | -77.04158 | 263 ft | 125 kts | 164° |
| 2026-05-06 02:25 | 38.86467 | -77.03909 | 106 ft | 126 kts | 176° |
| 2026-05-06 02:25 | 38.85583 | -77.03821 | 22 ft | 109 kts | 174° |
| 2026-05-06 02:26 | 38.85090 | -77.03771 | 24 ft | 52 kts | 177° |
| 2026-05-06 02:26 | 38.84890 | -77.03812 | 22 ft | 14 kts | 234° |
| 2026-05-06 02:26 | 38.84878 | -77.03870 | 22 ft | 0 kts | 265° |
| 2026-05-06 02:28 | 38.84876 | -77.03913 | 23 ft | 9 kts | 278° |
| 2026-05-06 02:28 | 38.84927 | -77.03955 | 24 ft | 9 kts | 354° |
| 2026-05-06 02:28 | 38.85017 | -77.03965 | 24 ft | 15 kts | 354° |
| 2026-05-06 02:28 | 38.85121 | -77.03975 | 24 ft | 13 kts | 356° |
| 2026-05-06 02:29 | 38.85192 | -77.03981 | 25 ft | 7 kts | 356° |
| 2026-05-06 02:29 | 38.85208 | -77.03982 | 25 ft | 0 kts | 356° |
| 2026-05-06 02:32 | 38.85229 | -77.03984 | 25 ft | 6 kts | 356° |
| 2026-05-06 02:32 | 38.85316 | -77.03992 | 25 ft | 12 kts | 355° |
| 2026-05-06 02:32 | 38.85405 | -77.04000 | 25 ft | 11 kts | 354° |
| 2026-05-06 02:32 | 38.85489 | -77.04010 | 25 ft | 12 kts | 351° |
| 2026-05-06 02:33 | 38.85535 | -77.04079 | 26 ft | 8 kts | 276° |
| 2026-05-06 02:33 | 38.85528 | -77.04125 | 27 ft | 7 kts | 254° |
| 2026-05-06 02:34 | 38.85480 | -77.04249 | 30 ft | 5 kts | 186° |
| 2026-05-06 02:34 | 38.85442 | -77.04234 | 30 ft | 3 kts | 163° |
| 2026-05-06 02:34 | 38.85436 | -77.04233 | 29 ft | 0 kts | 164° |